Oriental Clematis — 9VJT5 — position and weather

sailwx.info

Track history (hours):
 
Tides and Currents Weather Stations Pressure Air Temp Water Temp Dewpoint Dewpoint Depression Visibility Wind Speed Wind Dir Waves Ship Positions

Oriental Clematis

Last reported at 2016-Jul-24 14:34 UTC. Time now 2016-Jul-24 14:45 UTC.
Position N 34°28' E 135°18'.

Length 134 m; draft 7.2 m.

Type: Ship (hazmat cat C). MMSI: 565157000.

Date/timePositionNaut miles runAvg speedWind from/ knotsBaromVisibWave heightAir tempDewpointWater temp
2016-Jul-24 14:34N 34°28' E 135°18'7 7.1
2016-Jul-24 13:33N 34°26' E 135°09'1313.4
2016-Jul-24 12:34N 34°15' E 134°59'1413.5
2016-Jul-24 11:33N 34°02' E 134°59'236 9.8
2016-Jul-23 11:23N 34°57' E 139°38'1112.9
2016-Jul-23 10:33N 35°07' E 139°43'1110.8
2016-Jul-23 09:33N 35°18' E 139°44'1110.6
2016-Jul-23 08:33N 35°28' E 139°48'1312.7
2016-Jul-23 07:33N 35°34' E 140°02'4 3.2
2016-Jul-23 06:24N 35°36' E 140°05'0 0.0
2016-Jul-23 04:24N 35°36' E 140°05'0 0.0
2016-Jul-23 03:27N 35°36' E 140°05'0 0.0
2016-Jul-23 02:24N 35°36' E 140°05'0 0.0
2016-Jul-23 01:30N 35°36' E 140°05'0 0.0
2016-Jul-23 00:30N 35°36' E 140°05'0 0.0
2016-Jul-22 23:06N 35°36' E 140°05'0 0.0
2016-Jul-22 22:33N 35°36' E 140°05'3 2.9
2016-Jul-22 21:26N 35°35' E 140°02'0 0.0
2016-Jul-22 20:32N 35°35' E 140°02'0 0.0
2016-Jul-22 19:29N 35°35' E 140°02'0 0.1
2016-Jul-22 18:32N 35°35' E 140°02'0 0.0
2016-Jul-22 17:29N 35°35' E 140°02'0 0.0
2016-Jul-22 16:32N 35°35' E 140°02'0 0.0
2016-Jul-22 15:32N 35°35' E 140°02'0 0.0
2016-Jul-22 14:32N 35°35' E 140°02'0 0.0
2016-Jul-22 13:29N 35°35' E 140°02'0 0.0
2016-Jul-22 12:32N 35°35' E 140°02'0 0.0
2016-Jul-22 11:32N 35°35' E 140°02'0 0.0
2016-Jul-22 10:26N 35°35' E 140°02'3 3.8
2016-Jul-22 09:34N 35°36' E 140°06'0 0.0
2016-Jul-22 08:29N 35°36' E 140°06'0 0.0
2016-Jul-22 04:29N 35°36' E 140°06'0 0.0
2016-Jul-22 03:23N 35°36' E 140°06'0 0.0
2016-Jul-22 02:29N 35°36' E 140°06'1 1.6
2016-Jul-22 01:33N 35°35' E 140°04'9 9.2
2016-Jul-22 00:34N 35°30' E 139°55'1010.2
2016-Jul-21 23:33N 35°23' E 139°46'10 9.6
2016-Jul-21 22:33N 35°14' E 139°47'1111.0
2016-Jul-21 21:33N 35°03' E 139°45'  
Track history (hours):
 
Tides and Currents Weather Stations Pressure Air Temp Water Temp Dewpoint Dewpoint Depression Visibility Wind Speed Wind Dir Waves Ship Positions

Oriental Clematis

Last reported at 2016-Jul-24 14:34 UTC. Time now 2016-Jul-24 14:45 UTC.
Position N 34°28' E 135°18'.

Length 134 m; draft 7.2 m.

Type: Ship (hazmat cat C). MMSI: 565157000.

Date/timePositionNaut miles runAvg speedWind from/ knotsBaromVisibWave heightAir tempDewpointWater temp
2016-Jul-24 14:34N 34°28' E 135°18'7 7.1
2016-Jul-24 13:33N 34°26' E 135°09'1313.4
2016-Jul-24 12:34N 34°15' E 134°59'1413.5
2016-Jul-24 11:33N 34°02' E 134°59'236 9.8
2016-Jul-23 11:23N 34°57' E 139°38'1112.9
2016-Jul-23 10:33N 35°07' E 139°43'1110.8
2016-Jul-23 09:33N 35°18' E 139°44'1110.6
2016-Jul-23 08:33N 35°28' E 139°48'1312.7
2016-Jul-23 07:33N 35°34' E 140°02'4 3.2
2016-Jul-23 06:24N 35°36' E 140°05'0 0.0
2016-Jul-23 04:24N 35°36' E 140°05'0 0.0
2016-Jul-23 03:27N 35°36' E 140°05'0 0.0
2016-Jul-23 02:24N 35°36' E 140°05'0 0.0
2016-Jul-23 01:30N 35°36' E 140°05'0 0.0
2016-Jul-23 00:30N 35°36' E 140°05'0 0.0
2016-Jul-22 23:06N 35°36' E 140°05'0 0.0
2016-Jul-22 22:33N 35°36' E 140°05'3 2.9
2016-Jul-22 21:26N 35°35' E 140°02'0 0.0
2016-Jul-22 20:32N 35°35' E 140°02'0 0.0
2016-Jul-22 19:29N 35°35' E 140°02'0 0.1
2016-Jul-22 18:32N 35°35' E 140°02'0 0.0
2016-Jul-22 17:29N 35°35' E 140°02'0 0.0
2016-Jul-22 16:32N 35°35' E 140°02'0 0.0
2016-Jul-22 15:32N 35°35' E 140°02'0 0.0
2016-Jul-22 14:32N 35°35' E 140°02'0 0.0
2016-Jul-22 13:29N 35°35' E 140°02'0 0.0
2016-Jul-22 12:32N 35°35' E 140°02'0 0.0
2016-Jul-22 11:32N 35°35' E 140°02'0 0.0
2016-Jul-22 10:26N 35°35' E 140°02'3 3.8
2016-Jul-22 09:34N 35°36' E 140°06'0 0.0
2016-Jul-22 08:29N 35°36' E 140°06'0 0.0
2016-Jul-22 04:29N 35°36' E 140°06'0 0.0
2016-Jul-22 03:23N 35°36' E 140°06'0 0.0
2016-Jul-22 02:29N 35°36' E 140°06'1 1.6
2016-Jul-22 01:33N 35°35' E 140°04'9 9.2
2016-Jul-22 00:34N 35°30' E 139°55'1010.2
2016-Jul-21 23:33N 35°23' E 139°46'10 9.6
2016-Jul-21 22:33N 35°14' E 139°47'1111.0
2016-Jul-21 21:33N 35°03' E 139°45'  

Dump ship's entire track history